Time;durP1;ratioP1;P1;durP2;ratioP2;P2;SDS_P1;SDS_P2;PMS_P1;PMS_P2;Temp;Humidity;BMP_temperature;BMP_pressure;BME280_temperature;BME280_humidity;BME280_pressure;Samples;Min_cycle;Max_cycle;Signal;HPM_P1;HPM_P2
2023/02/09 05:05:23;;;;;;;8.85;5.07;;;-4.50;99.90;;;;;;6210440;22;20743;31
2023/02/09 05:07:48;;;;;;;4.47;4.03;;;-4.50;99.90;;;;;;4953931;29;20291;-67
2023/02/09 05:10:14;;;;;;;5.80;4.90;;;-4.40;99.90;;;;;;4955829;28;20199;-64
2023/02/09 05:12:40;;;;;;;10.20;3.97;;;-4.50;99.90;;;;;;4955982;29;20181;-66
2023/02/09 05:15:05;;;;;;;5.10;4.63;;;-4.50;99.90;;;;;;4955310;28;20460;-66
2023/02/09 05:17:32;;;;;;;6.63;3.90;;;-4.50;99.90;;;;;;4955808;29;20300;-65
2023/02/09 05:19:58;;;;;;;8.07;6.15;;;-4.60;99.90;;;;;;4955584;29;20885;-65
2023/02/09 05:22:24;;;;;;;9.45;2.60;;;-4.50;99.90;;;;;;4955720;28;20251;-66
2023/02/09 05:24:50;;;;;;;6.63;3.70;;;-4.60;99.90;;;;;;4955512;28;20246;-66
2023/02/09 05:27:15;;;;;;;6.80;4.00;;;-4.60;99.90;;;;;;4955473;29;20419;-66
2023/02/09 05:29:41;;;;;;;3.50;3.30;;;-4.60;99.90;;;;;;4955603;29;20566;-64
2023/02/09 05:32:06;;;;;;;12.93;5.83;;;-4.60;99.90;;;;;;4945758;29;20174;-66
2023/02/09 05:34:32;;;;;;;3.53;3.23;;;-4.60;99.90;;;;;;4934348;29;20208;-66
2023/02/09 05:36:58;;;;;;;8.73;4.60;;;-4.70;99.90;;;;;;4936016;29;20647;-65
2023/02/09 05:39:23;;;;;;;5.43;4.60;;;-4.70;99.90;;;;;;4951677;29;20181;-64
2023/02/09 05:44:33;;;;;;;5.82;4.53;;;-4.80;99.90;;;;;;4941981;29;20255;-64
2023/02/09 05:46:58;;;;;;;3.47;2.67;;;-4.80;99.90;;;;;;4936092;29;20200;-65
2023/02/09 05:49:24;;;;;;;3.80;3.60;;;-4.80;99.90;;;;;;4935652;29;20675;-65
2023/02/09 05:51:50;;;;;;;9.10;3.87;;;-4.80;99.90;;;;;;4935458;29;20248;-64
2023/02/09 05:54:15;;;;;;;6.03;5.23;;;-4.90;99.90;;;;;;4935379;29;20673;-65
2023/02/09 05:56:42;;;;;;;5.77;4.50;;;-4.90;99.90;;;;;;4936116;29;20169;-65
2023/02/09 05:59:07;;;;;;;3.60;3.40;;;-4.90;99.90;;;;;;4936117;29;20256;-66
2023/02/09 06:01:33;;;;;;;8.53;3.73;;;-4.90;99.90;;;;;;4936200;29;20605;-66
2023/02/09 06:03:59;;;;;;;4.33;3.93;;;-4.90;99.90;;;;;;4938957;29;20241;-67
2023/02/09 06:06:24;;;;;;;5.10;3.73;;;-4.90;99.90;;;;;;4935793;29;20527;-66
2023/02/09 06:08:50;;;;;;;5.03;4.70;;;-4.90;99.90;;;;;;4940297;29;20287;-65
2023/02/09 06:11:15;;;;;;;4.17;3.87;;;-4.90;99.90;;;;;;4955042;28;20169;-65
2023/02/09 06:13:41;;;;;;;11.33;5.33;;;-4.90;99.90;;;;;;4954012;28;20231;-67
2023/02/09 06:16:07;;;;;;;5.90;3.47;;;-4.90;99.90;;;;;;4955146;29;20304;-66
2023/02/09 06:18:33;;;;;;;6.17;3.87;;;-5.00;99.90;;;;;;4949637;28;20181;-66
2023/02/09 06:20:58;;;;;;;4.23;3.83;;;-5.00;99.90;;;;;;4947852;29;20440;-66
2023/02/09 06:23:24;;;;;;;8.77;6.37;;;-5.00;99.90;;;;;;4937525;29;20187;-67
2023/02/09 06:25:52;;;;;;;5.50;4.43;;;-5.00;99.90;;;;;;4954823;28;20188;-67
2023/02/09 06:28:19;;;;;;;3.70;3.50;;;-5.00;99.90;;;;;;4952500;29;20339;-65
2023/02/09 06:30:52;;;;;;;4.55;4.13;;;-4.90;99.90;;;;;;4935881;29;20177;-66
2023/02/09 06:33:18;;;;;;;6.25;4.78;;;-4.90;99.90;;;;;;4936363;29;20531;-67
2023/02/09 06:35:44;;;;;;;4.25;3.88;;;-5.00;99.90;;;;;;4954773;28;20236;-67
2023/02/09 06:38:10;;;;;;;6.22;5.55;;;-5.00;99.90;;;;;;4954543;28;20208;-66
2023/02/09 06:40:36;;;;;;;6.77;4.90;;;-5.00;99.90;;;;;;4938342;29;20217;-66
2023/02/09 06:43:02;;;;;;;11.40;5.40;;;-5.00;99.90;;;;;;4935357;29;20834;-66
2023/02/09 06:45:27;;;;;;;3.43;2.60;;;-5.00;99.90;;;;;;4936048;29;20485;-65
2023/02/09 06:47:53;;;;;;;4.67;4.33;;;-4.90;99.90;;;;;;4935807;29;20193;-65
2023/02/09 06:50:19;;;;;;;4.23;3.83;;;-4.90;99.90;;;;;;4950649;29;20240;-65
2023/02/09 06:52:45;;;;;;;7.85;5.20;;;-4.90;99.90;;;;;;4954521;28;20172;-65
2023/02/09 06:55:11;;;;;;;6.95;4.20;;;-4.80;99.90;;;;;;4940322;28;20291;-67
2023/02/09 06:57:37;;;;;;;5.75;4.63;;;-4.80;99.90;;;;;;4935695;29;20178;-66
2023/02/09 07:00:08;;;;;;;6.57;6.05;;;-4.90;99.90;;;;;;4947807;29;20255;-67
2023/02/09 07:02:34;;;;;;;7.28;4.07;;;-4.80;99.90;;;;;;4953456;28;20658;-66
2023/02/09 07:04:59;;;;;;;4.23;3.77;;;-4.80;99.90;;;;;;4936836;28;20289;-66
2023/02/09 07:07:25;;;;;;;4.77;4.37;;;-4.80;99.90;;;;;;4937561;29;20444;-66
2023/02/09 07:09:51;;;;;;;8.43;5.87;;;-4.70;99.90;;;;;;4939142;29;20178;-66
2023/02/09 07:12:16;;;;;;;5.73;4.73;;;-4.60;99.90;;;;;;4938897;29;20409;-65
2023/02/09 07:14:42;;;;;;;7.03;5.83;;;-4.60;99.90;;;;;;4955287;29;20204;-65
2023/02/09 07:17:07;;;;;;;4.80;4.40;;;-4.50;99.90;;;;;;4957989;29;20165;-65
2023/02/09 07:19:34;;;;;;;6.70;5.13;;;-4.40;99.90;;;;;;4946493;28;20307;-66
2023/02/09 07:22:00;;;;;;;4.90;4.23;;;-4.30;99.90;;;;;;4957720;29;20255;-67
2023/02/09 07:24:25;;;;;;;4.70;3.93;;;-4.10;99.90;;;;;;4943432;29;20599;-66
2023/02/09 07:26:51;;;;;;;10.23;4.20;;;-4.00;99.90;;;;;;4938816;29;20251;-66
2023/02/09 07:29:16;;;;;;;10.97;6.40;;;-3.90;99.90;;;;;;4950221;29;20544;-65
2023/02/09 07:31:42;;;;;;;13.83;6.60;;;-3.80;99.90;;;;;;4942841;29;20178;-65
2023/02/09 07:34:08;;;;;;;5.43;4.60;;;-3.60;99.90;;;;;;4938963;29;20611;-65
2023/02/09 07:36:33;;;;;;;10.83;9.37;;;-3.30;99.90;;;;;;4938560;29;20560;-66
2023/02/09 07:38:59;;;;;;;12.07;6.87;;;-2.90;99.90;;;;;;4946304;29;20296;-65
2023/02/09 07:41:26;;;;;;;15.03;7.17;;;-2.50;99.90;;;;;;4957675;29;20266;-65
2023/02/09 07:43:54;;;;;;;9.73;5.97;;;-2.20;99.90;;;;;;4942252;28;20659;-65
2023/02/09 07:46:21;;;;;;;10.30;6.80;;;-1.90;99.90;;;;;;4948469;29;20263;-64
2023/02/09 07:48:48;;;;;;;9.68;6.75;;;-1.50;99.90;;;;;;4942848;28;20270;-66
2023/02/09 07:51:15;;;;;;;11.18;7.60;;;-1.20;99.90;;;;;;4946462;28;20241;-65
2023/02/09 07:53:41;;;;;;;9.57;7.35;;;-0.90;99.90;;;;;;4956906;28;20543;-66
2023/02/09 07:56:07;;;;;;;13.95;6.72;;;-0.70;99.90;;;;;;4946532;28;20196;-64
2023/02/09 07:58:32;;;;;;;11.80;8.10;;;-0.60;99.90;;;;;;4937877;29;20165;-65
2023/02/09 08:01:11;;;;;;;8.03;6.93;;;-0.50;99.90;;;;;;4938312;29;20177;-64
2023/02/09 08:03:38;;;;;;;10.32;6.20;;;-0.20;99.90;;;;;;4964443;28;20185;-64
2023/02/09 08:06:11;;;;;;;11.48;6.75;;;0.10;99.90;;;;;;4955852;28;20193;-64
2023/02/09 08:08:37;;;;;;;9.35;7.95;;;0.50;99.90;;;;;;4956977;28;20201;-66
2023/02/09 08:11:04;;;;;;;11.50;7.00;;;1.10;99.90;;;;;;4948744;28;20509;-65
2023/02/09 08:13:34;;;;;;;13.70;8.50;;;1.70;99.90;;;;;;4956703;28;20569;-64
2023/02/09 08:16:03;;;;;;;11.27;7.40;;;2.40;99.90;;;;;;4948631;28;20547;-63
2023/02/09 08:18:39;;;;;;;12.55;8.95;;;3.00;99.90;;;;;;4936511;29;20188;-64
2023/02/09 08:21:08;;;;;;;9.55;6.85;;;3.20;98.30;;;;;;4937906;29;20179;-64
2023/02/09 08:23:34;;;;;;;9.13;6.90;;;3.40;98.00;;;;;;4938114;29;20184;-62
2023/02/09 08:26:06;;;;;;;12.95;8.40;;;3.60;97.00;;;;;;4942104;29;20661;-61
2023/02/09 08:28:32;;;;;;;13.00;8.57;;;3.80;96.20;;;;;;4953509;28;20261;-63
2023/02/09 08:30:58;;;;;;;17.88;9.00;;;4.10;95.30;;;;;;4937426;29;20252;-63
2023/02/09 08:33:24;;;;;;;15.37;10.20;;;4.40;95.20;;;;;;4949509;28;20651;-65
2023/02/09 08:35:51;;;;;;;10.70;9.53;;;4.90;94.70;;;;;;4956612;29;20205;-64
2023/02/09 08:38:17;;;;;;;11.55;8.23;;;5.30;94.40;;;;;;4938566;28;20266;-65
2023/02/09 08:40:43;;;;;;;9.17;7.53;;;5.90;93.70;;;;;;4937223;29;20572;-63
2023/02/09 08:43:09;;;;;;;11.27;7.40;;;6.50;93.00;;;;;;4952215;29;20434;-64
2023/02/09 08:45:35;;;;;;;11.50;8.23;;;7.20;91.80;;;;;;4956246;28;20246;-64
2023/02/09 08:48:01;;;;;;;14.50;8.60;;;7.70;90.00;;;;;;4941210;28;20467;-64
2023/02/09 08:50:27;;;;;;;11.10;8.53;;;8.10;87.00;;;;;;4937254;29;20409;-64
2023/02/09 08:52:53;;;;;;;11.33;8.03;;;8.40;84.10;;;;;;4948272;29;20423;-65
2023/02/09 08:55:18;;;;;;;10.90;8.90;;;8.70;84.10;;;;;;4956257;29;20676;-65
2023/02/09 08:57:44;;;;;;;9.93;8.20;;;9.10;83.30;;;;;;4944808;29;20194;-64
2023/02/09 09:00:10;;;;;;;12.63;9.20;;;9.30;80.90;;;;;;4937010;29;20182;-63
2023/02/09 09:02:36;;;;;;;11.80;8.37;;;9.40;78.20;;;;;;4947338;28;20273;-65
2023/02/09 09:05:02;;;;;;;11.53;8.63;;;9.50;78.10;;;;;;4955586;28;20976;-65
2023/02/09 09:07:27;;;;;;;12.83;9.80;;;9.60;77.90;;;;;;4946691;29;20197;-65
2023/02/09 09:09:53;;;;;;;11.13;9.17;;;9.50;77.40;;;;;;4936749;29;20642;-63
2023/02/09 09:12:18;;;;;;;13.77;10.30;;;9.70;78.30;;;;;;4940041;29;20259;-64
2023/02/09 09:14:44;;;;;;;12.83;10.23;;;9.80;75.20;;;;;;4936332;29;20514;-65
2023/02/09 09:17:10;;;;;;;16.70;11.40;;;9.80;75.70;;;;;;4936857;29;20183;-63
2023/02/09 09:19:35;;;;;;;13.50;10.03;;;9.90;76.00;;;;;;4936555;29;20181;-65
2023/02/09 09:22:02;;;;;;;10.70;9.40;;;9.90;74.90;;;;;;4939764;28;20539;-65
2023/02/09 09:24:29;;;;;;;13.70;9.67;;;9.90;74.50;;;;;;4955262;28;20558;-66
2023/02/09 09:26:55;;;;;;;13.57;9.57;;;10.00;73.80;;;;;;4954614;28;20523;-66
2023/02/09 09:29:21;;;;;;;12.60;9.70;;;10.00;73.30;;;;;;4954300;28;20472;-64
2023/02/09 09:31:47;;;;;;;13.13;10.20;;;9.70;75.40;;;;;;4955121;28;20507;-65
2023/02/09 09:34:12;;;;;;;11.70;9.97;;;10.00;74.20;;;;;;4955038;28;20197;-64
2023/02/09 09:36:38;;;;;;;12.83;9.83;;;10.30;73.60;;;;;;4954981;28;20614;-64
2023/02/09 09:39:04;;;;;;;16.97;11.77;;;10.70;72.40;;;;;;4936271;29;20189;-65
2023/02/09 09:41:36;;;;;;;15.57;10.30;;;10.90;72.20;;;;;;4939941;29;20220;-65
2023/02/09 09:44:11;;;;;;;13.40;10.10;;;11.00;70.10;;;;;;4954963;28;20192;-64
2023/02/09 09:46:40;;;;;;;17.03;11.70;;;11.00;71.70;;;;;;4950987;28;20425;-63
2023/02/09 09:49:10;;;;;;;15.97;13.10;;;11.30;70.80;;;;;;4936181;29;20453;-64
2023/02/09 09:51:42;;;;;;;16.23;12.57;;;11.60;69.40;;;;;;4939613;29;20424;-65
2023/02/09 09:54:35;;;;;;;19.37;13.57;;;11.70;67.90;;;;;;4954799;28;20460;-66
2023/02/09 09:57:02;;;;;;;13.63;10.97;;;11.50;67.90;;;;;;4946466;29;20429;-64
2023/02/09 09:59:33;;;;;;;15.63;12.23;;;11.30;71.00;;;;;;4935834;29;20939;-64
2023/02/09 10:02:05;;;;;;;13.70;11.60;;;11.40;70.20;;;;;;4941158;28;20433;-64
2023/02/09 10:04:30;;;;;;;14.27;11.07;;;11.50;70.00;;;;;;4954907;28;21005;-65
2023/02/09 10:07:01;;;;;;;16.87;13.00;;;11.70;67.70;;;;;;4950772;28;20536;-64
2023/02/09 10:09:44;;;;;;;15.33;11.57;;;11.50;67.30;;;;;;4934824;29;20212;-65
2023/02/09 10:12:21;;;;;;;16.47;11.53;;;11.40;69.10;;;;;;4939472;29;20425;-64
2023/02/09 10:14:47;;;;;;;18.90;13.10;;;11.00;68.70;;;;;;4935887;29;20433;-63
2023/02/09 10:17:12;;;;;;;16.30;12.03;;;10.80;69.30;;;;;;4936140;29;20429;-64
2023/02/09 10:19:38;;;;;;;18.10;13.40;;;10.60;71.10;;;;;;4939553;29;20181;-66
2023/02/09 10:22:09;;;;;;;18.43;13.10;;;10.90;69.70;;;;;;4955058;29;20173;-66
2023/02/09 10:24:38;;;;;;;14.37;11.57;;;11.30;68.20;;;;;;4952947;28;20255;-64
2023/02/09 10:27:27;;;;;;;18.50;13.00;;;11.00;67.80;;;;;;4955049;28;20507;-64
2023/02/09 10:29:53;;;;;;;17.50;12.77;;;10.40;69.40;;;;;;4938958;29;20457;-65
2023/02/09 10:32:20;;;;;;;17.83;12.33;;;10.20;71.60;;;;;;4936007;29;20415;-66
2023/02/09 10:34:52;;;;;;;15.83;11.57;;;10.20;71.70;;;;;;4952713;29;20486;-65
2023/02/09 10:37:38;;;;;;;16.37;12.83;;;10.30;70.80;;;;;;4955117;29;20382;-65
2023/02/09 10:40:30;;;;;;;16.97;12.20;;;10.60;71.30;;;;;;4939132;28;20449;-65
2023/02/09 10:42:58;;;;;;;14.57;11.00;;;10.80;70.20;;;;;;4940108;29;20770;-69
2023/02/09 10:45:32;;;;;;;16.53;12.37;;;10.60;70.90;;;;;;4958453;28;20423;-64
2023/02/09 10:48:07;;;;;;;14.60;12.30;;;10.60;70.90;;;;;;4956858;29;20801;-66
2023/02/09 10:50:32;;;;;;;15.77;11.97;;;10.80;71.10;;;;;;4958611;28;20511;-66
2023/02/09 10:53:17;;;;;;;12.70;11.10;;;11.00;69.60;;;;;;4945482;29;20556;-65
2023/02/09 10:55:44;;;;;;;17.30;12.60;;;10.90;69.10;;;;;;4939241;29;20200;-66
2023/02/09 10:58:15;;;;;;;16.40;12.57;;;11.10;70.10;;;;;;4951056;28;20430;-65
2023/02/09 11:00:40;;;;;;;14.50;11.70;;;11.30;67.80;;;;;;4958339;28;20407;-66
2023/02/09 11:03:16;;;;;;;15.80;12.57;;;11.40;68.00;;;;;;4947414;29;20421;-65
2023/02/09 11:05:45;;;;;;;17.60;11.87;;;11.30;68.10;;;;;;4938954;29;20218;-64
2023/02/09 11:08:19;;;;;;;15.83;12.00;;;11.20;67.80;;;;;;4949804;29;20465;-64
2023/02/09 11:10:57;;;;;;;16.07;11.70;;;11.10;68.50;;;;;;4956622;28;20442;-67
2023/02/09 11:13:25;;;;;;;18.60;11.77;;;10.90;69.10;;;;;;4945147;29;20432;-64
2023/02/09 11:16:04;;;;;;;13.17;9.73;;;10.50;68.20;;;;;;4938681;28;20989;-64
2023/02/09 11:18:33;;;;;;;16.87;11.50;;;10.20;68.40;;;;;;4951332;29;20459;-63
2023/02/09 11:21:16;;;;;;;15.20;10.80;;;10.00;68.70;;;;;;4956831;28;20421;-64
2023/02/09 11:23:52;;;;;;;17.73;12.77;;;9.80;70.90;;;;;;4943379;28;20429;-65
2023/02/09 11:26:36;;;;;;;16.70;12.57;;;9.60;71.90;;;;;;4938856;29;20514;-66
2023/02/09 11:29:15;;;;;;;13.87;10.53;;;8.90;72.70;;;;;;4939506;29;20469;-65
2023/02/09 11:32:01;;;;;;;12.27;9.87;;;8.10;73.10;;;;;;4939005;29;20421;-66
2023/02/09 11:34:55;;;;;;;15.05;9.55;;;7.30;74.30;;;;;;4957263;29;20516;-64
2023/02/09 11:37:34;;;;;;;13.02;9.50;;;6.80;76.10;;;;;;4952446;28;20646;-65
2023/02/09 11:40:18;;;;;;;12.98;9.40;;;6.30;77.60;;;;;;4938585;29;20177;-67
2023/02/09 11:42:54;;;;;;;18.20;11.77;;;6.00;77.90;;;;;;4945530;29;20180;-66
2023/02/09 11:45:48;;;;;;;16.70;11.15;;;5.60;80.70;;;;;;4957585;28;20192;-66
2023/02/09 11:48:43;;;;;;;15.50;10.80;;;5.40;81.80;;;;;;4946436;28;20267;-66
2023/02/09 11:51:19;;;;;;;17.02;9.63;;;5.10;83.60;;;;;;4937044;29;20196;-65
2023/02/09 11:53:50;;;;;;;19.58;12.10;;;4.90;86.10;;;;;;4950132;29;20650;-63
2023/02/09 11:56:19;;;;;;;17.00;11.00;;;5.10;84.00;;;;;;4957515;28;20223;-64
2023/02/09 11:59:37;;;;;;;15.55;11.45;;;5.00;83.50;;;;;;4943486;28;20180;-67
2023/02/09 12:02:36;;;;;;;16.83;9.52;;;5.00;83.00;;;;;;4935906;29;20673;-65
2023/02/09 12:05:02;;;;;;;15.65;10.07;;;4.70;84.60;;;;;;4934771;29;20304;-65
2023/02/09 12:07:58;;;;;;;15.20;9.90;;;4.50;86.40;;;;;;4935540;29;20268;-64
2023/02/09 12:10:50;;;;;;;22.60;11.27;;;4.40;86.20;;;;;;4935896;29;20442;-65
2023/02/09 12:13:32;;;;;;;14.48;9.23;;;4.30;86.60;;;;;;4935079;29;20187;-63
2023/02/09 12:16:07;;;;;;;20.77;9.82;;;4.40;86.40;;;;;;4935404;29;20194;-64
2023/02/09 12:18:34;;;;;;;11.80;9.13;;;4.30;86.80;;;;;;4935767;29;20263;-64
2023/02/09 12:21:04;;;;;;;12.77;8.80;;;4.30;86.80;;;;;;4935578;29;20189;-65
2023/02/09 12:23:34;;;;;;;12.88;10.05;;;4.30;86.90;;;;;;4935340;29;20548;-65
2023/02/09 12:26:15;;;;;;;13.55;9.73;;;4.30;86.90;;;;;;4935441;29;20197;-66
2023/02/09 12:29:15;;;;;;;21.95;12.40;;;4.30;86.90;;;;;;4931911;29;20562;-63
2023/02/09 12:31:59;;;;;;;12.23;8.20;;;4.20;86.90;;;;;;4935285;29;20172;-62
2023/02/09 12:34:42;;;;;;;15.55;9.18;;;4.30;88.00;;;;;;4947551;28;20211;-65
2023/02/09 12:37:13;;;;;;;16.58;10.38;;;4.30;88.60;;;;;;4956722;28;20197;-65
2023/02/09 12:40:09;;;;;;;14.98;8.52;;;4.40;90.40;;;;;;4950120;28;20262;-66
2023/02/09 12:42:50;;;;;;;12.80;9.52;;;4.50;88.90;;;;;;4936575;29;20186;-62
2023/02/09 12:45:40;;;;;;;18.50;10.00;;;4.60;88.10;;;;;;4947854;29;20714;-65
2023/02/09 12:48:08;;;;;;;13.90;8.98;;;4.60;90.50;;;;;;4937310;29;20315;-67
2023/02/09 12:50:54;;;;;;;13.32;9.60;;;4.70;90.10;;;;;;4937268;29;21006;-66
2023/02/09 12:53:22;;;;;;;14.80;9.45;;;4.80;90.10;;;;;;4940973;29;20511;-65
2023/02/09 12:56:21;;;;;;;11.93;8.27;;;4.80;88.70;;;;;;4954789;29;20270;-66
2023/02/09 12:58:49;;;;;;;14.55;9.75;;;4.80;88.80;;;;;;4956079;28;20661;-64
2023/02/09 13:01:15;;;;;;;13.65;9.27;;;4.80;88.40;;;;;;4955721;28;20183;-65
2023/02/09 13:03:50;;;;;;;11.18;8.38;;;4.80;88.80;;;;;;4953976;29;20712;-66
2023/02/09 13:06:32;;;;;;;14.98;10.07;;;4.80;89.50;;;;;;4955441;28;20187;-66
2023/02/09 13:09:01;;;;;;;13.07;8.25;;;4.90;89.40;;;;;;4946271;28;20205;-66
2023/02/09 13:11:44;;;;;;;16.08;9.55;;;4.90;89.20;;;;;;4935438;29;20597;-67
2023/02/09 13:14:13;;;;;;;16.70;10.98;;;4.90;88.40;;;;;;4935027;29;20667;-65
2023/02/09 13:17:00;;;;;;;13.45;9.27;;;4.80;88.00;;;;;;4951660;28;20166;-69
2023/02/09 13:19:45;;;;;;;16.30;9.55;;;4.80;89.80;;;;;;4936640;29;20226;-65
2023/02/09 13:22:31;;;;;;;17.08;10.40;;;4.80;89.60;;;;;;4938459;29;20171;-65
2023/02/09 13:25:17;;;;;;;13.15;8.60;;;4.80;89.20;;;;;;4947316;28;20226;-65
2023/02/09 13:27:45;;;;;;;17.92;9.50;;;4.80;89.50;;;;;;4967628;28;20642;-69
2023/02/09 13:30:33;;;;;;;10.50;9.20;;;4.80;89.80;;;;;;4941501;28;20628;-67
2023/02/09 13:33:41;;;;;;;16.98;10.55;;;4.70;89.90;;;;;;4966014;28;20712;-65
2023/02/09 13:36:30;;;;;;;14.90;9.35;;;4.80;89.60;;;;;;4982742;28;20180;-65
2023/02/09 13:38:56;;;;;;;16.92;9.75;;;4.70;89.20;;;;;;4940987;29;20318;-65
2023/02/09 13:41:39;;;;;;;9.85;7.30;;;4.70;90.00;;;;;;4962509;28;20199;-68
2023/02/09 13:44:19;;;;;;;12.00;9.05;;;4.80;89.80;;;;;;4955037;28;20191;-65
2023/02/09 13:46:51;;;;;;;13.57;8.70;;;4.90;89.50;;;;;;4955188;28;20711;-66
2023/02/09 13:49:22;;;;;;;16.15;8.98;;;4.90;89.40;;;;;;4953463;28;20218;-65
2023/02/09 13:52:33;;;;;;;12.18;9.38;;;4.90;89.50;;;;;;4950705;29;20663;-66
2023/02/09 13:55:11;;;;;;;13.18;10.48;;;4.90;89.80;;;;;;4894464;29;20281;-67
2023/02/09 13:57:39;;;;;;;16.02;10.43;;;4.90;90.20;;;;;;4877360;29;20182;-66
2023/02/09 14:00:22;;;;;;;14.05;9.23;;;4.90;90.00;;;;;;4877387;29;20191;-67
2023/02/09 14:02:55;;;;;;;14.25;8.95;;;4.90;90.00;;;;;;4877417;29;20208;-67
2023/02/09 14:05:31;;;;;;;16.05;10.40;;;4.90;89.90;;;;;;4887584;29;20289;-65
2023/02/09 14:07:57;;;;;;;12.52;8.52;;;4.90;90.00;;;;;;4896106;29;20245;-66
2023/02/09 14:10:25;;;;;;;12.68;9.07;;;4.90;90.20;;;;;;4895961;29;20177;-67
2023/02/09 14:13:17;;;;;;;19.20;11.02;;;4.90;90.30;;;;;;4890127;29;20566;-66
2023/02/09 14:16:08;;;;;;;11.40;8.98;;;4.90;90.10;;;;;;4881130;29;20192;-66
2023/02/09 14:18:57;;;;;;;13.98;9.48;;;4.70;89.60;;;;;;4894724;29;20279;-66
2023/02/09 14:21:30;;;;;;;11.95;8.75;;;4.60;90.00;;;;;;4899334;29;20225;-67
2023/02/09 14:23:56;;;;;;;13.75;8.82;;;4.60;90.20;;;;;;4899628;29;20286;-68
2023/02/09 14:26:42;;;;;;;15.52;9.43;;;4.70;90.30;;;;;;4932717;29;20193;-68
2023/02/09 14:29:13;;;;;;;12.32;10.23;;;4.70;90.50;;;;;;4958582;28;20591;-68
2023/02/09 14:31:59;;;;;;;13.00;8.30;;;4.70;90.40;;;;;;4956189;28;20230;-67
2023/02/09 14:34:32;;;;;;;13.43;8.50;;;4.80;90.50;;;;;;4939196;29;20552;-68
2023/02/09 14:37:15;;;;;;;13.85;9.18;;;4.70;90.60;;;;;;4943562;29;20258;-68
2023/02/09 14:39:54;;;;;;;11.90;8.95;;;4.60;90.60;;;;;;4958243;28;20310;-66
2023/02/09 14:42:20;;;;;;;20.65;12.93;;;4.50;90.60;;;;;;4956995;28;20192;-67
2023/02/09 14:44:55;;;;;;;14.00;9.38;;;4.50;90.90;;;;;;4958070;28;20226;-68
2023/02/09 14:47:36;;;;;;;17.48;9.70;;;4.50;91.30;;;;;;4958395;28;20272;-67
2023/02/09 14:50:02;;;;;;;16.60;9.90;;;4.50;90.90;;;;;;4958557;28;20230;-68
2023/02/09 14:52:31;;;;;;;13.68;10.63;;;4.50;90.60;;;;;;4958414;28;20267;-68
2023/02/09 14:55:01;;;;;;;11.85;8.73;;;4.50;90.80;;;;;;4957850;28;20190;-66
2023/02/09 14:57:29;;;;;;;17.15;10.77;;;4.40;91.00;;;;;;4958321;28;20641;-68
2023/02/09 14:59:55;;;;;;;13.68;8.23;;;4.40;90.90;;;;;;4958302;28;20191;-68
2023/02/09 15:02:25;;;;;;;16.57;9.03;;;4.40;91.20;;;;;;4957108;29;20202;-68
2023/02/09 15:04:52;;;;;;;12.60;7.32;;;4.40;91.20;;;;;;4957954;28;20837;-68
2023/02/09 15:07:21;;;;;;;17.38;11.43;;;4.40;91.20;;;;;;4958288;28;20204;-69
2023/02/09 15:09:47;;;;;;;12.65;8.70;;;4.40;91.20;;;;;;4958316;28;20220;-66
2023/02/09 15:12:24;;;;;;;10.38;8.35;;;4.40;91.20;;;;;;4958004;28;20173;-68
2023/02/09 15:14:52;;;;;;;18.48;9.40;;;4.30;91.20;;;;;;4957753;28;20216;-68
2023/02/09 15:17:20;;;;;;;17.73;9.43;;;4.30;91.30;;;;;;4957879;28;20170;-69
2023/02/09 15:19:46;;;;;;;18.58;9.90;;;4.30;91.30;;;;;;4957887;28;20180;-69
2023/02/09 15:22:14;;;;;;;13.23;9.27;;;4.20;91.30;;;;;;4958197;29;20174;-68
2023/02/09 15:24:42;;;;;;;14.05;9.80;;;4.20;91.40;;;;;;4950164;28;20532;-67
2023/02/09 15:27:20;;;;;;;11.63;8.50;;;4.20;91.30;;;;;;4937407;29;20180;-67
2023/02/09 15:29:46;;;;;;;13.93;9.60;;;4.20;91.70;;;;;;4938905;29;20209;-67
2023/02/09 15:32:17;;;;;;;18.00;10.47;;;4.20;92.10;;;;;;4938671;29;20186;-68
2023/02/09 15:34:43;;;;;;;14.98;10.63;;;4.10;91.70;;;;;;4938058;29;20202;-68
2023/02/09 15:37:21;;;;;;;11.90;7.72;;;4.20;91.70;;;;;;4937411;29;20652;-68
2023/02/09 15:39:49;;;;;;;11.57;8.65;;;4.00;91.70;;;;;;4937303;29;20184;-67
2023/02/09 15:47:47;;;;;;;14.00;9.60;;;3.90;91.80;;;;;;4938263;29;20256;-67
2023/02/09 15:48:07;;;;;;;11.90;8.25;;;4.00;91.80;;;;;;4938126;29;20245;-69
2023/02/09 15:50:39;;;;;;;14.32;10.15;;;3.90;91.80;;;;;;4938612;29;20183;-68
2023/02/09 15:53:07;;;;;;;13.82;9.88;;;3.90;92.00;;;;;;4937843;29;20752;-66
2023/02/09 15:55:35;;;;;;;15.25;9.43;;;3.80;91.80;;;;;;4938043;29;20193;-67
2023/02/09 15:58:01;;;;;;;14.20;11.57;;;3.80;92.20;;;;;;4938228;29;20181;-67
2023/02/09 16:00:28;;;;;;;13.77;8.57;;;3.70;92.20;;;;;;4937996;29;20178;-68
2023/02/09 16:02:55;;;;;;;12.23;9.73;;;3.70;92.20;;;;;;4937718;29;20540;-67
2023/02/09 16:05:22;;;;;;;12.15;9.80;;;3.60;92.20;;;;;;4937791;29;20553;-66
2023/02/09 16:07:51;;;;;;;15.73;10.40;;;3.60;92.40;;;;;;4937973;29;20169;-67
2023/02/09 16:10:26;;;;;;;18.35;12.07;;;3.50;92.30;;;;;;4938001;29;20166;-67
2023/02/09 16:12:52;;;;;;;13.55;10.80;;;3.40;92.30;;;;;;4937501;29;20497;-67
2023/02/09 16:15:23;;;;;;;16.30;10.23;;;3.40;92.50;;;;;;4937720;29;20316;-67
2023/02/09 16:17:49;;;;;;;16.30;10.93;;;3.40;92.70;;;;;;4943877;29;20170;-68
2023/02/09 16:20:15;;;;;;;10.52;9.18;;;3.30;92.70;;;;;;4954224;29;20169;-67
2023/02/09 16:22:45;;;;;;;16.83;11.05;;;3.20;92.80;;;;;;4937909;29;20169;-68
2023/02/09 16:25:17;;;;;;;13.48;9.50;;;3.10;92.90;;;;;;4942194;29;20663;-68
2023/02/09 16:27:43;;;;;;;13.60;9.85;;;3.10;93.10;;;;;;4938961;28;20178;-67
2023/02/09 16:30:27;;;;;;;16.20;9.30;;;3.00;93.20;;;;;;4956607;28;20259;-68
2023/02/09 16:32:53;;;;;;;13.82;9.45;;;3.00;93.30;;;;;;4956306;28;20403;-68
2023/02/09 16:35:21;;;;;;;13.30;8.27;;;2.90;93.40;;;;;;4956527;28;20197;-69
2023/02/09 16:37:48;;;;;;;17.35;11.70;;;2.80;93.60;;;;;;4956394;28;20642;-68
2023/02/09 16:40:27;;;;;;;18.85;10.43;;;2.80;93.60;;;;;;4956716;28;20181;-69
2023/02/09 16:42:53;;;;;;;12.13;8.95;;;2.70;94.10;;;;;;4956176;28;20196;-68
2023/02/09 16:45:20;;;;;;;16.85;10.52;;;2.70;94.20;;;;;;4956244;28;20319;-69
2023/02/09 16:47:49;;;;;;;16.33;8.32;;;2.60;94.80;;;;;;4950189;28;20188;-68
2023/02/09 16:50:30;;;;;;;20.25;11.60;;;2.60;94.90;;;;;;4954036;29;20260;-68
2023/02/09 16:52:58;;;;;;;18.52;10.02;;;2.60;95.00;;;;;;4955759;29;20168;-69
2023/02/09 16:55:32;;;;;;;12.00;9.25;;;2.50;94.90;;;;;;4954911;28;20196;-70
2023/02/09 16:58:00;;;;;;;14.35;9.02;;;2.50;94.80;;;;;;4939651;29;20216;-69
2023/02/09 17:00:28;;;;;;;13.63;10.07;;;2.40;94.80;;;;;;4949375;29;20177;-69
2023/02/09 17:02:58;;;;;;;12.55;8.80;;;2.40;95.00;;;;;;4955723;28;20215;-68
2023/02/09 17:05:27;;;;;;;9.93;8.93;;;2.40;95.10;;;;;;4944545;28;20232;-68
2023/02/09 17:08:01;;;;;;;17.42;11.23;;;2.30;95.60;;;;;;4948283;28;20195;-68
2023/02/09 17:10:33;;;;;;;15.95;9.95;;;2.30;95.80;;;;;;4945978;29;20177;-69
2023/02/09 17:13:06;;;;;;;16.77;10.40;;;2.20;95.80;;;;;;4936165;29;20213;-66
2023/02/09 17:15:39;;;;;;;17.67;10.45;;;2.10;95.80;;;;;;4942986;29;20200;-66
2023/02/09 17:18:07;;;;;;;16.50;12.32;;;2.10;96.10;;;;;;4955871;28;20200;-65
2023/02/09 17:20:46;;;;;;;19.90;10.80;;;2.00;96.20;;;;;;4942381;28;20181;-65
2023/02/09 17:23:21;;;;;;;13.32;10.25;;;2.00;96.50;;;;;;4936154;29;20330;-64
2023/02/09 17:25:47;;;;;;;15.30;10.55;;;1.90;96.80;;;;;;4938684;29;20211;-67
2023/02/09 17:28:13;;;;;;;18.50;12.03;;;1.80;96.90;;;;;;4946576;29;20280;-68
2023/02/09 17:30:40;;;;;;;19.33;12.57;;;1.80;97.10;;;;;;4945147;28;20432;-67
2023/02/09 17:33:18;;;;;;;15.07;10.50;;;1.70;97.40;;;;;;4945978;29;20193;-66
2023/02/09 17:35:44;;;;;;;15.85;10.75;;;1.60;97.70;;;;;;4946232;29;20185;-67
2023/02/09 17:38:24;;;;;;;25.00;13.00;;;1.50;98.10;;;;;;4946187;29;20180;-68
2023/02/09 17:40:52;;;;;;;20.83;12.15;;;1.50;98.70;;;;;;4961231;28;20856;-68
2023/02/09 17:43:17;;;;;;;15.57;11.65;;;1.40;99.90;;;;;;4944876;29;20185;-68
2023/02/09 17:45:47;;;;;;;24.20;14.47;;;1.40;99.90;;;;;;4940295;28;20201;-68
2023/02/09 17:48:14;;;;;;;20.60;12.45;;;1.40;99.90;;;;;;4953867;28;20197;-67
2023/02/09 17:50:47;;;;;;;23.67;12.90;;;1.30;99.90;;;;;;4941629;28;20171;-69
2023/02/09 17:53:27;;;;;;;22.35;14.07;;;1.40;99.90;;;;;;4937129;29;20176;-66
2023/02/09 17:55:56;;;;;;;19.10;13.35;;;1.30;99.90;;;;;;4936059;29;20200;-66
2023/02/09 17:58:23;;;;;;;18.85;11.52;;;1.30;99.90;;;;;;4936079;29;20663;-67
2023/02/09 18:00:51;;;;;;;18.85;12.75;;;1.30;99.90;;;;;;4945073;29;20188;-68
2023/02/09 18:03:19;;;;;;;19.60;10.73;;;1.20;99.90;;;;;;4950631;29;20181;-67
2023/02/09 18:05:50;;;;;;;23.52;13.95;;;1.10;99.90;;;;;;4941897;28;20244;-68
2023/02/09 18:08:17;;;;;;;16.75;12.38;;;1.10;99.90;;;;;;4944433;29;20205;-63
2023/02/09 18:10:43;;;;;;;18.27;12.68;;;1.10;99.90;;;;;;4943372;29;20170;-65
2023/02/09 18:13:16;;;;;;;20.30;13.07;;;1.00;99.90;;;;;;4943895;29;20280;-65